Home > Products > Valid Products > TAF

000
FTUS43 KJKL 301127
TAFLOZ
TAF
KLOZ 301127Z 3012/3112 VRB03KT P6SM SCT100
     FM301900 34007KT P6SM SCT100=



000
FTUS43 KJKL 301127
TAFSME
TAF
KSME 301127Z 3012/3112 00000KT 3SM BR FEW100
     FM301300 VRB04KT P6SM FEW100
     FM301800 35006KT P6SM SCT250=



000
FTUS43 KJKL 301127
TAFJKL
TAF
KJKL 301127Z 3012/3112 VRB04KT P6SM SCT090=



000
FTUS43 KJKL 301050 AAF
TAFJKL
TAF AMD
KJKL 301050Z 3011/3106 VRB04KT P6SM SCT100=



000
FTUS43 KJKL 300736 AAB
TAFJKL
TAF AMD
KJKL 300736Z 3008/3106 VRB04KT P6SM VCTS BKN040CB
     FM301100 VRB04KT P6SM SCT100=



000
FTUS43 KJKL 300734 AAA
TAFSME
TAF AMD
KSME 300734Z 3008/3106 VRB03KT P6SM VCTS SCT040CB
     FM301000 00000KT 4SM BR SCT050
     FM301300 VRB05KT P6SM FEW100=



000
FTUS43 KJKL 300533
TAFJKL
TAF
KJKL 300533Z 3006/3106 VRB04KT P6SM SCT100=



000
FTUS43 KJKL 300533
TAFLOZ
TAF
KLOZ 300533Z 3006/3106 00000KT P6SM SCT100
     FM300900 00000KT 3SM BR FEW015
     FM301200 VRB04KT P6SM SCT040=



000
FTUS43 KJKL 300533
TAFSME
TAF
KSME 300533Z 3006/3106 00000KT P6SM SCT100
     FM300900 00000KT 4SM BR SCT100
     FM301300 VRB05KT P6SM FEW100=



000
FTUS43 KJKL 291134
TAFLOZ
TAF
KLOZ 291134Z 2912/3012 VRB04KT P6SM SCT050 BKN100
     FM300800 00000KT 3SM BR SCT040=



000
FTUS43 KJKL 291134
TAFSME
TAF
KSME 291134Z 2912/3012 VRB04KT P6SM SCT050 BKN150
     FM292300 VRB03KT P6SM SCT150=



000
FTUS43 KJKL 291134
TAFJKL
TAF
KJKL 291134Z 2912/3012 VRB04KT P6SM VCTS BKN040CB
     FM292300 VRB03KT P6SM SCT050 BKN100=



000
FTUS43 KJKL 290533
TAFLOZ
TAF
KLOZ 290533Z 2906/3006 VRB04KT P6SM SCT250=



000
FTUS43 KJKL 290533
TAFSME
TAF
KSME 290533Z 2906/3006 00000KT P6SM SCT200
     FM290900 00000KT 3SM BR SCT100
     FM291300 VRB03KT P6SM SCT200=



000
FTUS43 KJKL 290533
TAFJKL
TAF
KJKL 290533Z 2906/3006 VRB04KT P6SM SCT200=



000
FTUS43 KJKL 281050 AAB
TAFSME
TAF AMD
KSME 281050Z 2811/2906 00000KT 4SM BR SCT100
     FM281300 19006KT P6SM SCT045
     FM281800 22006KT P6SM VCTS BKN040CB
     FM290100 VRB03KT P6SM SCT040=



000
FTUS43 KJKL 280557
TAFSME
TAF
KSME 280557Z 2806/2906 00000KT P6SM SCT100
     FM280900 00000KT 5SM BR BKN100
     FM281200 19006KT P6SM SCT045 BKN080
     FM281800 22006KT P6SM VCTS BKN040CB
     FM290100 VRB03KT P6SM SCT040=



000
FTUS43 KJKL 280557
TAFJKL
TAF
KJKL 280557Z 2806/2906 00000KT 6SM BR BKN150
     FM281000 00000KT 4SM BR SCT100
     FM281200 22004KT P6SM SCT040 BKN100
     FM281900 27004KT P6SM VCTS BKN035CB
     FM290200 VRB03KT P6SM SCT040=



000
FTUS43 KJKL 280557
TAFLOZ
TAF
KLOZ 280557Z 2806/2906 00000KT P6SM SCT100
     FM280900 00000KT 5SM BR BKN100
     FM281200 VRB03KT P6SM SCT100
     FM281800 20007KT P6SM VCTS BKN040CB
     FM290100 VRB03KT P6SM SCT040=



000
FTUS43 KJKL 280419 AAC
TAFJKL
TAF AMD
KJKL 280419Z 2804/2824 VRB03KT P6SM SCT003 BKN100
     FM281200 VRB03KT P6SM SCT050
     FM282000 VRB03KT P6SM VCTS BKN050CB=



000
FTUS43 KJKL 280112 AAA
TAFJKL
TAF AMD
KJKL 280112Z 2801/2824 15009G15KT 2SM +RA BR VCTS SCT010 BKN035CB
     FM280130 VRB03KT P6SM SCT040
     FM280800 VRB03KT 5SM BR SCT050
     FM281200 VRB03KT P6SM SCT050
     FM282000 VRB03KT P6SM VCTS BKN050CB=



000
FTUS43 KJKL 272158 AAB
TAFJKL
TAF AMD
KJKL 272158Z 2722/2818 VRB03KT 6SM -TSRA BKN050CB
     FM272230 VRB03KT P6SM VCTS BKN050CB
     FM280400 00000KT P6SM VCSH BKN040
     FM280700 00000KT 6SM BR BKN050=



    US Dept of Commerce
    National Oceanic and Atmospheric Administration
    National Weather Service
    1325 East West Highway
    Silver Spring, MD 20910
    Page Author: NWS Internet Services Team
Disclaimer
Information Quality
Credits
Glossary
Privacy Policy
Freedom of Information Act (FOIA)
About Us
Career Opportunities